sensor_id;sensor_type;location;lat;lon;timestamp;pressure;altitude;pressure_sealevel;temperature;humidity
8075;BME280;4080;42.676;23.372;2023-04-27T00:00:12;94770.50;;;9.30;86.88
8075;BME280;4080;42.676;23.372;2023-04-27T00:02:39;94624.28;;;8.32;86.40
8075;BME280;4080;42.676;23.372;2023-04-27T00:05:06;94790.50;;;9.36;86.50
8075;BME280;4080;42.676;23.372;2023-04-27T00:07:35;94791.03;;;9.33;86.44
8075;BME280;4080;42.676;23.372;2023-04-27T00:10:01;94793.94;;;9.26;86.30
8075;BME280;4080;42.676;23.372;2023-04-27T00:12:28;94796.31;;;9.23;86.50
8075;BME280;4080;42.676;23.372;2023-04-27T00:14:56;94793.41;;;9.19;86.51
8075;BME280;4080;42.676;23.372;2023-04-27T00:17:23;94802.09;;;9.15;87.06
8075;BME280;4080;42.676;23.372;2023-04-27T00:19:50;94793.13;;;9.11;86.59
8075;BME280;4080;42.676;23.372;2023-04-27T00:22:17;94754.72;;;8.79;86.42
8075;BME280;4080;42.676;23.372;2023-04-27T00:24:44;94806.81;;;9.08;86.84
8075;BME280;4080;42.676;23.372;2023-04-27T00:27:11;94809.44;;;9.08;86.47
8075;BME280;4080;42.676;23.372;2023-04-27T00:29:38;94801.56;;;9.02;86.72
8075;BME280;4080;42.676;23.372;2023-04-27T00:32:08;94803.13;;;9.03;86.68
8075;BME280;4080;42.676;23.372;2023-04-27T00:34:35;94801.81;;;9.01;87.33
8075;BME280;4080;42.676;23.372;2023-04-27T00:37:02;94775.75;;;8.79;86.89
8075;BME280;4080;42.676;23.372;2023-04-27T00:39:30;94802.84;;;8.85;87.04
8075;BME280;4080;42.676;23.372;2023-04-27T00:41:59;94814.44;;;8.89;86.95
8075;BME280;4080;42.676;23.372;2023-04-27T00:44:27;94811.53;;;8.85;87.13
8075;BME280;4080;42.676;23.372;2023-04-27T00:46:54;94802.59;;;8.81;87.79
8075;BME280;4080;42.676;23.372;2023-04-27T00:49:23;94800.22;;;8.69;87.77
8075;BME280;4080;42.676;23.372;2023-04-27T00:51:51;94813.09;;;8.71;87.98
8075;BME280;4080;42.676;23.372;2023-04-27T00:54:19;94812.03;;;8.67;87.48
8075;BME280;4080;42.676;23.372;2023-04-27T00:56:47;94774.88;;;8.33;88.25
8075;BME280;4080;42.676;23.372;2023-04-27T00:59:14;94818.59;;;8.59;88.11
8075;BME280;4080;42.676;23.372;2023-04-27T01:01:40;94815.94;;;8.54;88.32
8075;BME280;4080;42.676;23.372;2023-04-27T01:04:07;94818.28;;;8.51;88.76
8075;BME280;4080;42.676;23.372;2023-04-27T01:06:35;94818.81;;;8.48;88.95
8075;BME280;4080;42.676;23.372;2023-04-27T01:09:03;94827.22;;;8.45;88.84
8075;BME280;4080;42.676;23.372;2023-04-27T01:11:31;94820.91;;;8.40;89.17
8075;BME280;4080;42.676;23.372;2023-04-27T01:14:02;94820.09;;;8.35;89.56
8075;BME280;4080;42.676;23.372;2023-04-27T01:16:30;94822.16;;;8.33;89.33
8075;BME280;4080;42.676;23.372;2023-04-27T01:18:57;94769.22;;;7.99;89.61
8075;BME280;4080;42.676;23.372;2023-04-27T01:21:24;94825.06;;;8.31;90.14
8075;BME280;4080;42.676;23.372;2023-04-27T01:23:52;94824.78;;;8.28;89.64
8075;BME280;4080;42.676;23.372;2023-04-27T01:26:19;94803.16;;;8.10;90.56
8075;BME280;4080;42.676;23.372;2023-04-27T01:28:45;94826.31;;;8.24;90.30
8075;BME280;4080;42.676;23.372;2023-04-27T01:31:12;94822.63;;;8.20;90.52
8075;BME280;4080;42.676;23.372;2023-04-27T01:33:39;94820.78;;;8.15;90.52
8075;BME280;4080;42.676;23.372;2023-04-27T01:36:07;94829.41;;;8.10;90.80
8075;BME280;4080;42.676;23.372;2023-04-27T01:38:35;94829.66;;;8.04;90.81
8075;BME280;4080;42.676;23.372;2023-04-27T01:41:04;94833.06;;;7.99;91.77
8075;BME280;4080;42.676;23.372;2023-04-27T01:43:31;94835.94;;;7.98;91.75
8075;BME280;4080;42.676;23.372;2023-04-27T01:46:04;94839.03;;;7.95;91.80
8075;BME280;4080;42.676;23.372;2023-04-27T01:48:31;94832.47;;;7.92;91.42
8075;BME280;4080;42.676;23.372;2023-04-27T01:50:58;94830.34;;;7.89;91.17
8075;BME280;4080;42.676;23.372;2023-04-27T01:53:24;94831.13;;;7.85;92.10
8075;BME280;4080;42.676;23.372;2023-04-27T01:55:51;94830.84;;;7.81;92.04
8075;BME280;4080;42.676;23.372;2023-04-27T01:58:19;94842.13;;;7.76;91.53
8075;BME280;4080;42.676;23.372;2023-04-27T02:00:46;94787.84;;;7.45;91.30
8075;BME280;4080;42.676;23.372;2023-04-27T02:03:12;94837.13;;;7.75;91.42
8075;BME280;4080;42.676;23.372;2023-04-27T02:05:39;94842.09;;;7.71;91.88
8075;BME280;4080;42.676;23.372;2023-04-27T02:08:06;94805.16;;;7.46;91.06
8075;BME280;4080;42.676;23.372;2023-04-27T02:10:33;94839.72;;;7.70;91.68
8075;BME280;4080;42.676;23.372;2023-04-27T02:13:00;94838.66;;;7.71;91.19
8075;BME280;4080;42.676;23.372;2023-04-27T02:15:29;94796.72;;;7.39;91.65
8075;BME280;4080;42.676;23.372;2023-04-27T02:17:55;94846.47;;;7.61;91.62
8075;BME280;4080;42.676;23.372;2023-04-27T02:20:22;94844.88;;;7.60;91.92
8075;BME280;4080;42.676;23.372;2023-04-27T02:22:50;94846.97;;;7.58;91.77
8075;BME280;4080;42.676;23.372;2023-04-27T02:25:18;94848.53;;;7.54;91.97
8075;BME280;4080;42.676;23.372;2023-04-27T02:27:44;94839.84;;;7.53;91.96
8075;BME280;4080;42.676;23.372;2023-04-27T02:30:12;94839.06;;;7.53;92.16
8075;BME280;4080;42.676;23.372;2023-04-27T02:32:40;94787.91;;;7.18;92.17
8075;BME280;4080;42.676;23.372;2023-04-27T02:35:07;94841.69;;;7.53;92.38
8075;BME280;4080;42.676;23.372;2023-04-27T02:37:34;94843.53;;;7.52;92.24
8075;BME280;4080;42.676;23.372;2023-04-27T02:40:01;94847.69;;;7.48;92.58
8075;BME280;4080;42.676;23.372;2023-04-27T02:42:29;94852.41;;;7.46;91.95
8075;BME280;4080;42.676;23.372;2023-04-27T02:44:55;94809.72;;;7.24;92.06
8075;BME280;4080;42.676;23.372;2023-04-27T02:47:22;94850.56;;;7.46;92.46
8075;BME280;4080;42.676;23.372;2023-04-27T02:49:50;94828.41;;;7.32;92.14
8075;BME280;4080;42.676;23.372;2023-04-27T02:52:17;94849.22;;;7.39;92.42
8075;BME280;4080;42.676;23.372;2023-04-27T02:54:44;94848.66;;;7.37;91.83
8075;BME280;4080;42.676;23.372;2023-04-27T02:57:10;94833.38;;;7.29;92.05
8075;BME280;4080;42.676;23.372;2023-04-27T02:59:37;94852.34;;;7.36;92.21
8075;BME280;4080;42.676;23.372;2023-04-27T03:02:04;94850.75;;;7.35;91.69
8075;BME280;4080;42.676;23.372;2023-04-27T03:04:30;94856.00;;;7.35;91.22
8075;BME280;4080;42.676;23.372;2023-04-27T03:06:58;94854.19;;;7.35;91.79
8075;BME280;4080;42.676;23.372;2023-04-27T03:09:25;94858.63;;;7.35;91.25
8075;BME280;4080;42.676;23.372;2023-04-27T03:11:52;94865.75;;;7.39;91.24
8075;BME280;4080;42.676;23.372;2023-04-27T03:14:18;94869.41;;;7.38;91.20
8075;BME280;4080;42.676;23.372;2023-04-27T03:16:45;94869.41;;;7.38;91.07
8075;BME280;4080;42.676;23.372;2023-04-27T03:19:12;94867.03;;;7.37;91.16
8075;BME280;4080;42.676;23.372;2023-04-27T03:21:38;94875.94;;;7.36;91.42
8075;BME280;4080;42.676;23.372;2023-04-27T03:24:07;94874.38;;;7.35;91.34
8075;BME280;4080;42.676;23.372;2023-04-27T03:26:34;94881.69;;;7.33;91.16
8075;BME280;4080;42.676;23.372;2023-04-27T03:29:00;94886.63;;;7.29;91.23
8075;BME280;4080;42.676;23.372;2023-04-27T03:31:27;94881.88;;;7.26;91.49
8075;BME280;4080;42.676;23.372;2023-04-27T03:33:54;94861.63;;;7.16;91.40
8075;BME280;4080;42.676;23.372;2023-04-27T03:36:21;94881.09;;;7.26;90.99
8075;BME280;4080;42.676;23.372;2023-04-27T03:38:48;94841.47;;;6.95;91.36
8075;BME280;4080;42.676;23.372;2023-04-27T03:41:16;94886.31;;;7.21;91.67
8075;BME280;4080;42.676;23.372;2023-04-27T03:43:43;94890.47;;;7.16;91.51
8075;BME280;4080;42.676;23.372;2023-04-27T03:46:11;94889.44;;;7.18;91.79
8075;BME280;4080;42.676;23.372;2023-04-27T03:48:38;94890.72;;;7.15;91.41
8075;BME280;4080;42.676;23.372;2023-04-27T03:51:05;94887.59;;;7.18;91.83
8075;BME280;4080;42.676;23.372;2023-04-27T03:53:32;94890.50;;;7.22;91.64
8075;BME280;4080;42.676;23.372;2023-04-27T03:56:00;94803.22;;;6.99;100.00
8075;BME280;4080;42.676;23.372;2023-04-27T03:58:28;94901.09;;;8.01;100.00
8075;BME280;4080;42.676;23.372;2023-04-27T04:00:55;94903.75;;;8.06;100.00
8075;BME280;4080;42.676;23.372;2023-04-27T04:03:23;94914.22;;;8.01;96.10
8075;BME280;4080;42.676;23.372;2023-04-27T04:05:49;94918.63;;;7.95;93.50
8075;BME280;4080;42.676;23.372;2023-04-27T04:08:16;94910.69;;;7.85;91.79
8075;BME280;4080;42.676;23.372;2023-04-27T04:10:43;94923.75;;;7.75;90.78
8075;BME280;4080;42.676;23.372;2023-04-27T04:13:10;94926.09;;;7.71;90.57
8075;BME280;4080;42.676;23.372;2023-04-27T04:15:38;94913.38;;;7.58;90.37
8075;BME280;4080;42.676;23.372;2023-04-27T04:18:05;94928.19;;;7.69;89.98
8075;BME280;4080;42.676;23.372;2023-04-27T04:20:33;94931.06;;;7.68;90.68
8075;BME280;4080;42.676;23.372;2023-04-27T04:23:00;94942.94;;;7.75;90.38
8075;BME280;4080;42.676;23.372;2023-04-27T04:25:26;94946.09;;;7.77;90.12
8075;BME280;4080;42.676;23.372;2023-04-27T04:27:53;94930.28;;;7.67;89.82
8075;BME280;4080;42.676;23.372;2023-04-27T04:30:20;94930.81;;;7.69;89.54
8075;BME280;4080;42.676;23.372;2023-04-27T04:32:49;94942.41;;;7.78;89.30
8075;BME280;4080;42.676;23.372;2023-04-27T04:35:16;94950.84;;;7.81;89.55
8075;BME280;4080;42.676;23.372;2023-04-27T04:37:44;94954.00;;;7.83;89.27
8075;BME280;4080;42.676;23.372;2023-04-27T04:40:12;94961.16;;;7.92;89.05
8075;BME280;4080;42.676;23.372;2023-04-27T04:42:38;94954.69;;;8.05;89.01
8075;BME280;4080;42.676;23.372;2023-04-27T04:45:06;94958.97;;;8.16;88.82
8075;BME280;4080;42.676;23.372;2023-04-27T04:47:33;94969.66;;;8.36;87.79
8075;BME280;4080;42.676;23.372;2023-04-27T04:50:01;94964.53;;;8.67;86.53
8075;BME280;4080;42.676;23.372;2023-04-27T04:52:28;94955.69;;;8.88;85.08
8075;BME280;4080;42.676;23.372;2023-04-27T04:54:55;94977.91;;;9.33;83.84
8075;BME280;4080;42.676;23.372;2023-04-27T04:57:21;94987.47;;;9.70;81.85
8075;BME280;4080;42.676;23.372;2023-04-27T04:59:48;94989.03;;;10.06;81.10
8075;BME280;4080;42.676;23.372;2023-04-27T05:02:15;94999.63;;;10.42;79.91
8075;BME280;4080;42.676;23.372;2023-04-27T05:04:41;94990.84;;;10.67;78.03
8075;BME280;4080;42.676;23.372;2023-04-27T05:07:10;95000.03;;;10.84;77.14
8075;BME280;4080;42.676;23.372;2023-04-27T05:09:37;94997.31;;;11.10;76.00
8075;BME280;4080;42.676;23.372;2023-04-27T05:12:04;95008.25;;;11.37;74.34
8075;BME280;4080;42.676;23.372;2023-04-27T05:14:31;94998.63;;;11.57;73.28
8075;BME280;4080;42.676;23.372;2023-04-27T05:16:58;95005.22;;;11.64;72.82
8075;BME280;4080;42.676;23.372;2023-04-27T05:19:24;95008.94;;;11.58;72.01
8075;BME280;4080;42.676;23.372;2023-04-27T05:21:53;95004.56;;;11.38;72.62
8075;BME280;4080;42.676;23.372;2023-04-27T05:24:21;94960.63;;;10.98;73.37
8075;BME280;4080;42.676;23.372;2023-04-27T05:26:48;95011.53;;;11.14;73.64
8075;BME280;4080;42.676;23.372;2023-04-27T05:29:15;95009.44;;;11.11;74.07
8075;BME280;4080;42.676;23.372;2023-04-27T05:31:41;95016.88;;;11.04;74.59
8075;BME280;4080;42.676;23.372;2023-04-27T05:34:08;95022.69;;;10.91;74.79
8075;BME280;4080;42.676;23.372;2023-04-27T05:36:35;95010.09;;;10.72;75.41
8075;BME280;4080;42.676;23.372;2023-04-27T05:39:02;95012.47;;;10.64;75.30
8075;BME280;4080;42.676;23.372;2023-04-27T05:41:30;95022.78;;;10.60;76.35
8075;BME280;4080;42.676;23.372;2023-04-27T05:43:57;95015.41;;;10.52;76.05
8075;BME280;4080;42.676;23.372;2023-04-27T05:46:24;95018.84;;;10.47;76.49
8075;BME280;4080;42.676;23.372;2023-04-27T05:48:51;95013.84;;;10.41;76.75
8075;BME280;4080;42.676;23.372;2023-04-27T05:51:17;95017.28;;;10.31;77.67
8075;BME280;4080;42.676;23.372;2023-04-27T05:53:44;94999.34;;;10.13;77.92
8075;BME280;4080;42.676;23.372;2023-04-27T05:56:11;95022.78;;;10.19;78.04
8075;BME280;4080;42.676;23.372;2023-04-27T05:58:39;95015.69;;;10.15;78.32
8075;BME280;4080;42.676;23.372;2023-04-27T06:01:06;95020.16;;;10.14;78.90
8075;BME280;4080;42.676;23.372;2023-04-27T06:03:33;94996.16;;;9.90;78.81
8075;BME280;4080;42.676;23.372;2023-04-27T06:06:00;95021.75;;;10.15;78.64
8075;BME280;4080;42.676;23.372;2023-04-27T06:08:27;95017.28;;;10.21;79.08
8075;BME280;4080;42.676;23.372;2023-04-27T06:10:55;95023.84;;;10.34;78.41
8075;BME280;4080;42.676;23.372;2023-04-27T06:13:22;94995.41;;;10.25;78.46
8075;BME280;4080;42.676;23.372;2023-04-27T06:15:50;95015.94;;;10.54;78.97
8075;BME280;4080;42.676;23.372;2023-04-27T06:18:16;95028.03;;;10.75;78.99
8075;BME280;4080;42.676;23.372;2023-04-27T06:20:43;95026.38;;;11.05;78.17
8075;BME280;4080;42.676;23.372;2023-04-27T06:23:11;95007.75;;;11.30;76.71
8075;BME280;4080;42.676;23.372;2023-04-27T06:25:37;95016.50;;;11.75;75.69
8075;BME280;4080;42.676;23.372;2023-04-27T06:28:05;95017.91;;;12.06;73.79
8075;BME280;4080;42.676;23.372;2023-04-27T06:30:31;95019.09;;;12.19;72.51
8075;BME280;4080;42.676;23.372;2023-04-27T06:33:00;95018.59;;;12.17;72.15
8075;BME280;4080;42.676;23.372;2023-04-27T06:35:27;95022.81;;;12.18;72.24
8075;BME280;4080;42.676;23.372;2023-04-27T06:37:53;95018.31;;;12.19;73.06
8075;BME280;4080;42.676;23.372;2023-04-27T06:40:23;95017.06;;;12.11;72.45
8075;BME280;4080;42.676;23.372;2023-04-27T06:42:50;94975.78;;;11.76;72.55
8075;BME280;4080;42.676;23.372;2023-04-27T06:45:17;95019.00;;;12.00;73.62
8075;BME280;4080;42.676;23.372;2023-04-27T06:47:44;95011.25;;;12.09;73.75
8075;BME280;4080;42.676;23.372;2023-04-27T06:50:13;94942.38;;;11.95;73.10
8075;BME280;4080;42.676;23.372;2023-04-27T06:52:40;95012.19;;;12.81;71.82
8075;BME280;4080;42.676;23.372;2023-04-27T06:55:07;95010.84;;;13.31;70.66
8075;BME280;4080;42.676;23.372;2023-04-27T06:57:34;95012.31;;;13.80;67.74
8075;BME280;4080;42.676;23.372;2023-04-27T07:00:01;95019.91;;;14.38;66.53
8075;BME280;4080;42.676;23.372;2023-04-27T07:02:27;95018.84;;;14.85;63.85
8075;BME280;4080;42.676;23.372;2023-04-27T07:04:54;95017.19;;;15.31;63.17
8075;BME280;4080;42.676;23.372;2023-04-27T07:07:22;95008.03;;;15.64;60.89
8075;BME280;4080;42.676;23.372;2023-04-27T07:09:49;95012.09;;;15.84;60.44
8075;BME280;4080;42.676;23.372;2023-04-27T07:12:16;95003.69;;;15.91;58.53
8075;BME280;4080;42.676;23.372;2023-04-27T07:14:43;95009.28;;;16.03;56.90
8075;BME280;4080;42.676;23.372;2023-04-27T07:17:09;94986.91;;;16.04;57.43
8075;BME280;4080;42.676;23.372;2023-04-27T07:19:36;95017.50;;;16.37;56.43
8075;BME280;4080;42.676;23.372;2023-04-27T07:22:03;95018.47;;;16.41;54.83
8075;BME280;4080;42.676;23.372;2023-04-27T07:24:31;95009.75;;;16.50;55.04
8075;BME280;4080;42.676;23.372;2023-04-27T07:26:58;95006.94;;;16.77;54.65
8075;BME280;4080;42.676;23.372;2023-04-27T07:29:27;94992.31;;;16.97;54.16
8075;BME280;4080;42.676;23.372;2023-04-27T07:31:54;95005.13;;;17.26;52.31
8075;BME280;4080;42.676;23.372;2023-04-27T07:34:21;95006.91;;;16.99;51.45
8075;BME280;4080;42.676;23.372;2023-04-27T07:36:48;95006.94;;;16.77;53.81
8075;BME280;4080;42.676;23.372;2023-04-27T07:39:16;95012.00;;;16.56;54.21
8075;BME280;4080;42.676;23.372;2023-04-27T07:41:46;95010.00;;;16.62;54.63
8075;BME280;4080;42.676;23.372;2023-04-27T07:44:14;95008.97;;;16.71;53.45
8075;BME280;4080;42.676;23.372;2023-04-27T07:46:41;95000.66;;;16.51;53.64
8075;BME280;4080;42.676;23.372;2023-04-27T07:49:07;95006.25;;;16.40;54.25
8075;BME280;4080;42.676;23.372;2023-04-27T07:51:34;95000.09;;;16.09;53.91
8075;BME280;4080;42.676;23.372;2023-04-27T07:54:01;95008.44;;;15.94;55.61
8075;BME280;4080;42.676;23.372;2023-04-27T07:56:28;95010.31;;;15.93;56.12
8075;BME280;4080;42.676;23.372;2023-04-27T07:58:56;94967.06;;;15.88;56.21
8075;BME280;4080;42.676;23.372;2023-04-27T08:01:23;95001.78;;;16.27;55.29
8075;BME280;4080;42.676;23.372;2023-04-27T08:03:50;94999.81;;;16.64;55.27
8075;BME280;4080;42.676;23.372;2023-04-27T08:06:17;94987.53;;;17.16;54.41
8075;BME280;4080;42.676;23.372;2023-04-27T08:08:44;95013.47;;;17.42;50.38
8075;BME280;4080;42.676;23.372;2023-04-27T08:11:11;95000.25;;;17.28;51.77
8075;BME280;4080;42.676;23.372;2023-04-27T08:13:37;95011.75;;;17.46;51.09
8075;BME280;4080;42.676;23.372;2023-04-27T08:16:06;95002.38;;;17.65;50.74
8075;BME280;4080;42.676;23.372;2023-04-27T08:18:32;95008.88;;;17.82;49.10
8075;BME280;4080;42.676;23.372;2023-04-27T08:20:59;95006.47;;;17.72;48.65
8075;BME280;4080;42.676;23.372;2023-04-27T08:23:26;95004.47;;;17.77;49.78
8075;BME280;4080;42.676;23.372;2023-04-27T08:25:53;95005.38;;;17.73;48.70
8075;BME280;4080;42.676;23.372;2023-04-27T08:28:20;94997.66;;;17.62;50.62
8075;BME280;4080;42.676;23.372;2023-04-27T08:30:47;95002.72;;;17.73;48.99
8075;BME280;4080;42.676;23.372;2023-04-27T08:33:15;95004.25;;;17.56;50.33
8075;BME280;4080;42.676;23.372;2023-04-27T08:35:42;94996.66;;;17.24;50.26
8075;BME280;4080;42.676;23.372;2023-04-27T08:38:09;94999.13;;;16.81;51.13
8075;BME280;4080;42.676;23.372;2023-04-27T08:40:41;95005.03;;;16.69;52.71
8075;BME280;4080;42.676;23.372;2023-04-27T08:43:08;95000.16;;;17.02;54.86
8075;BME280;4080;42.676;23.372;2023-04-27T08:45:34;94990.13;;;17.47;51.63
8075;BME280;4080;42.676;23.372;2023-04-27T08:48:02;95001.97;;;17.89;51.27
8075;BME280;4080;42.676;23.372;2023-04-27T08:50:30;94985.63;;;17.82;51.35
8075;BME280;4080;42.676;23.372;2023-04-27T08:52:56;94993.66;;;18.08;50.54
8075;BME280;4080;42.676;23.372;2023-04-27T08:55:24;95003.53;;;17.99;49.76
8075;BME280;4080;42.676;23.372;2023-04-27T08:57:54;95011.81;;;17.72;50.22
8075;BME280;4080;42.676;23.372;2023-04-27T09:00:22;95013.13;;;17.34;51.39
8075;BME280;4080;42.676;23.372;2023-04-27T09:02:49;95005.84;;;17.09;51.37
8075;BME280;4080;42.676;23.372;2023-04-27T09:05:16;95001.22;;;16.84;53.71
8075;BME280;4080;42.676;23.372;2023-04-27T09:07:56;94999.97;;;16.90;53.63
8075;BME280;4080;42.676;23.372;2023-04-27T09:10:23;94996.28;;;16.77;54.00
8075;BME280;4080;42.676;23.372;2023-04-27T09:12:55;94996.97;;;17.31;53.92
8075;BME280;4080;42.676;23.372;2023-04-27T09:15:22;94996.16;;;17.79;52.32
8075;BME280;4080;42.676;23.372;2023-04-27T09:17:52;94993.94;;;18.24;50.79
8075;BME280;4080;42.676;23.372;2023-04-27T09:20:19;94995.19;;;18.18;50.09
8075;BME280;4080;42.676;23.372;2023-04-27T09:22:47;94956.75;;;17.76;50.67
8075;BME280;4080;42.676;23.372;2023-04-27T09:25:30;94981.50;;;17.50;50.37
8075;BME280;4080;42.676;23.372;2023-04-27T09:27:58;94987.25;;;17.44;50.23
8075;BME280;4080;42.676;23.372;2023-04-27T09:30:26;94995.72;;;17.37;52.21
8075;BME280;4080;42.676;23.372;2023-04-27T09:32:55;94981.13;;;17.26;51.64
8075;BME280;4080;42.676;23.372;2023-04-27T09:35:23;94960.94;;;16.85;51.55
8075;BME280;4080;42.676;23.372;2023-04-27T09:37:51;94978.34;;;16.60;52.21
8075;BME280;4080;42.676;23.372;2023-04-27T09:40:19;94979.66;;;16.49;53.66
8075;BME280;4080;42.676;23.372;2023-04-27T09:42:50;94969.31;;;17.10;54.76
8075;BME280;4080;42.676;23.372;2023-04-27T09:45:17;94969.72;;;17.60;50.99
8075;BME280;4080;42.676;23.372;2023-04-27T09:47:44;94970.19;;;17.62;49.34
8075;BME280;4080;42.676;23.372;2023-04-27T09:50:12;94928.44;;;17.40;51.63
8075;BME280;4080;42.676;23.372;2023-04-27T09:52:38;94965.66;;;17.62;51.02
8075;BME280;4080;42.676;23.372;2023-04-27T09:55:09;94964.03;;;17.27;48.62
8075;BME280;4080;42.676;23.372;2023-04-27T09:57:42;94962.03;;;16.84;50.71
8075;BME280;4080;42.676;23.372;2023-04-27T10:00:26;94962.59;;;16.72;51.96
8075;BME280;4080;42.676;23.372;2023-04-27T10:03:09;94952.75;;;16.51;51.58
8075;BME280;4080;42.676;23.372;2023-04-27T10:05:57;94954.72;;;16.36;52.84
8075;BME280;4080;42.676;23.372;2023-04-27T10:08:33;94950.44;;;16.04;52.67
8075;BME280;4080;42.676;23.372;2023-04-27T10:11:00;94954.84;;;15.87;53.72
8075;BME280;4080;42.676;23.372;2023-04-27T10:13:38;94955.44;;;15.83;55.23
8075;BME280;4080;42.676;23.372;2023-04-27T10:16:15;94955.28;;;15.80;54.60
8075;BME280;4080;42.676;23.372;2023-04-27T10:18:50;94954.44;;;15.71;55.27
8075;BME280;4080;42.676;23.372;2023-04-27T10:21:17;94955.69;;;15.73;54.34
8075;BME280;4080;42.676;23.372;2023-04-27T10:23:47;94951.41;;;15.64;53.60
8075;BME280;4080;42.676;23.372;2023-04-27T10:26:25;94929.81;;;15.51;54.27
8075;BME280;4080;42.676;23.372;2023-04-27T10:28:57;94961.13;;;15.91;53.48
8075;BME280;4080;42.676;23.372;2023-04-27T10:31:28;94957.66;;;16.04;53.55
8075;BME280;4080;42.676;23.372;2023-04-27T10:34:05;94950.13;;;16.28;53.45
8075;BME280;4080;42.676;23.372;2023-04-27T10:36:37;94935.03;;;16.77;52.29
8075;BME280;4080;42.676;23.372;2023-04-27T10:39:15;94952.19;;;17.02;50.03
8075;BME280;4080;42.676;23.372;2023-04-27T10:41:50;94951.66;;;16.83;50.29
8075;BME280;4080;42.676;23.372;2023-04-27T10:44:18;94931.81;;;16.58;50.65
8075;BME280;4080;42.676;23.372;2023-04-27T10:46:50;94954.03;;;16.53;51.94
8075;BME280;4080;42.676;23.372;2023-04-27T10:49:17;94942.16;;;16.28;52.03
8075;BME280;4080;42.676;23.372;2023-04-27T10:51:44;94955.50;;;16.37;52.57
8075;BME280;4080;42.676;23.372;2023-04-27T10:54:12;94957.72;;;16.43;52.14
8075;BME280;4080;42.676;23.372;2023-04-27T10:56:39;94954.06;;;16.62;50.77
8075;BME280;4080;42.676;23.372;2023-04-27T10:59:06;94954.31;;;16.83;50.19
8075;BME280;4080;42.676;23.372;2023-04-27T11:01:33;94952.84;;;17.07;48.05
8075;BME280;4080;42.676;23.372;2023-04-27T11:04:02;94944.22;;;17.11;48.68
8075;BME280;4080;42.676;23.372;2023-04-27T11:06:30;94939.34;;;16.95;48.75
8075;BME280;4080;42.676;23.372;2023-04-27T11:08:58;94941.50;;;16.85;49.10
8075;BME280;4080;42.676;23.372;2023-04-27T11:11:24;94941.94;;;16.78;49.12
8075;BME280;4080;42.676;23.372;2023-04-27T11:13:52;94896.00;;;16.41;50.41
8075;BME280;4080;42.676;23.372;2023-04-27T11:16:20;94943.41;;;16.62;49.61
8075;BME280;4080;42.676;23.372;2023-04-27T11:18:46;94910.22;;;16.28;48.51
8075;BME280;4080;42.676;23.372;2023-04-27T11:21:17;94945.16;;;16.35;49.17
8075;BME280;4080;42.676;23.372;2023-04-27T11:23:44;94949.09;;;16.15;49.73
8075;BME280;4080;42.676;23.372;2023-04-27T11:26:12;94953.47;;;15.89;50.54
8075;BME280;4080;42.676;23.372;2023-04-27T11:28:40;94946.56;;;15.66;51.98
8075;BME280;4080;42.676;23.372;2023-04-27T11:31:07;94920.69;;;15.44;53.63
8075;BME280;4080;42.676;23.372;2023-04-27T11:33:34;94955.03;;;15.68;52.61
8075;BME280;4080;42.676;23.372;2023-04-27T11:36:01;94948.63;;;15.69;51.60
8075;BME280;4080;42.676;23.372;2023-04-27T11:38:33;94953.41;;;15.80;51.67
8075;BME280;4080;42.676;23.372;2023-04-27T11:41:02;94952.19;;;15.87;51.68
8075;BME280;4080;42.676;23.372;2023-04-27T11:43:29;94960.47;;;16.07;52.21
8075;BME280;4080;42.676;23.372;2023-04-27T11:45:56;94953.88;;;16.27;50.73
8075;BME280;4080;42.676;23.372;2023-04-27T11:48:23;94958.59;;;16.30;51.05
8075;BME280;4080;42.676;23.372;2023-04-27T11:50:50;94965.06;;;16.38;51.63
8075;BME280;4080;42.676;23.372;2023-04-27T11:53:28;94962.56;;;16.41;50.32
8075;BME280;4080;42.676;23.372;2023-04-27T11:55:58;94918.38;;;16.09;49.00
8075;BME280;4080;42.676;23.372;2023-04-27T11:58:26;94936.97;;;16.01;49.46
8075;BME280;4080;42.676;23.372;2023-04-27T12:00:55;94911.09;;;15.93;51.28
8075;BME280;4080;42.676;23.372;2023-04-27T12:03:21;94961.00;;;16.18;52.06
8075;BME280;4080;42.676;23.372;2023-04-27T12:05:49;94958.34;;;16.18;50.99
8075;BME280;4080;42.676;23.372;2023-04-27T12:08:16;94945.22;;;16.22;50.88
8075;BME280;4080;42.676;23.372;2023-04-27T12:10:43;94969.47;;;16.20;51.46
8075;BME280;4080;42.676;23.372;2023-04-27T12:13:12;94958.13;;;16.06;50.25
8075;BME280;4080;42.676;23.372;2023-04-27T12:15:40;94964.19;;;15.98;49.96
8075;BME280;4080;42.676;23.372;2023-04-27T12:18:07;94952.44;;;15.76;50.59
8075;BME280;4080;42.676;23.372;2023-04-27T12:20:35;94969.34;;;15.80;51.47
8075;BME280;4080;42.676;23.372;2023-04-27T12:23:01;94963.91;;;15.86;52.23
8075;BME280;4080;42.676;23.372;2023-04-27T12:25:28;94968.16;;;15.87;51.73
8075;BME280;4080;42.676;23.372;2023-04-27T12:27:55;94940.34;;;15.70;53.73
8075;BME280;4080;42.676;23.372;2023-04-27T12:30:23;94971.78;;;15.91;51.31
8075;BME280;4080;42.676;23.372;2023-04-27T12:32:50;94965.88;;;15.94;50.97
8075;BME280;4080;42.676;23.372;2023-04-27T12:35:17;94950.00;;;15.89;50.27
8075;BME280;4080;42.676;23.372;2023-04-27T12:37:44;94956.19;;;15.98;50.23
8075;BME280;4080;42.676;23.372;2023-04-27T12:40:12;94957.91;;;15.94;49.93
8075;BME280;4080;42.676;23.372;2023-04-27T12:42:39;94962.00;;;16.00;56.43
8075;BME280;4080;42.676;23.372;2023-04-27T12:45:06;94969.56;;;16.06;53.76
8075;BME280;4080;42.676;23.372;2023-04-27T12:47:35;94958.78;;;15.89;51.62
8075;BME280;4080;42.676;23.372;2023-04-27T12:50:02;94970.81;;;15.87;54.46
8075;BME280;4080;42.676;23.372;2023-04-27T12:52:29;94964.31;;;15.93;52.98
8075;BME280;4080;42.676;23.372;2023-04-27T12:54:57;94971.56;;;16.01;52.65
8075;BME280;4080;42.676;23.372;2023-04-27T12:57:24;94965.44;;;16.00;51.37
8075;BME280;4080;42.676;23.372;2023-04-27T12:59:51;94965.75;;;15.99;52.18
8075;BME280;4080;42.676;23.372;2023-04-27T13:02:17;94955.03;;;15.90;51.46
8075;BME280;4080;42.676;23.372;2023-04-27T13:04:45;94974.41;;;16.04;51.81
8075;BME280;4080;42.676;23.372;2023-04-27T13:07:13;94963.31;;;16.11;51.84
8075;BME280;4080;42.676;23.372;2023-04-27T13:09:40;94968.94;;;16.32;52.15
8075;BME280;4080;42.676;23.372;2023-04-27T13:12:07;94970.41;;;16.69;51.51
8075;BME280;4080;42.676;23.372;2023-04-27T13:14:34;94930.19;;;16.79;50.90
8075;BME280;4080;42.676;23.372;2023-04-27T13:17:00;94951.50;;;17.27;50.02